Time;durP1;ratioP1;P1;durP2;ratioP2;P2;SDS_P1;SDS_P2;PMS_P1;PMS_P2;Temp;Humidity;BMP_temperature;BMP_pressure;BME280_temperature;BME280_humidity;BME280_pressure;Samples;Min_cycle;Max_cycle;Signal;HPM_P1;HPM_P2
2023/12/27 00:00:40;;;;;;;3.45;1.58;;;18.80;50.70;;;;;;5114524;28;20260;-62
2023/12/27 00:03:07;;;;;;;4.60;2.00;;;18.80;50.80;;;;;;5114057;28;20276;-62
2023/12/27 00:05:34;;;;;;;3.53;1.60;;;18.80;50.80;;;;;;5114172;28;20307;-62
2023/12/27 00:08:01;;;;;;;4.35;1.85;;;18.90;50.90;;;;;;5114109;28;20730;-62
2023/12/27 00:10:29;;;;;;;4.40;1.63;;;18.90;51.50;;;;;;5114136;28;20248;-62
2023/12/27 00:12:56;;;;;;;4.60;1.73;;;18.80;50.80;;;;;;5114254;28;20272;-62
2023/12/27 00:15:23;;;;;;;2.90;1.42;;;18.80;50.80;;;;;;5114157;28;20719;-62
2023/12/27 00:17:50;;;;;;;3.17;1.50;;;18.80;50.90;;;;;;5113938;28;20209;-62
2023/12/27 00:20:17;;;;;;;3.13;1.58;;;18.80;50.90;;;;;;5114089;28;20280;-62
2023/12/27 00:22:43;;;;;;;4.22;1.55;;;18.80;50.90;;;;;;5114022;28;20280;-62
2023/12/27 00:25:10;;;;;;;3.78;1.70;;;18.80;50.90;;;;;;5113525;28;20269;-62
2023/12/27 00:27:38;;;;;;;4.75;1.90;;;18.80;50.90;;;;;;5113635;28;20746;-62
2023/12/27 00:30:08;;;;;;;2.38;1.33;;;18.80;50.90;;;;;;5113907;28;20276;-62
2023/12/27 00:32:35;;;;;;;3.83;1.80;;;18.80;50.90;;;;;;5113253;28;20655;-62
2023/12/27 00:35:02;;;;;;;2.22;1.60;;;18.80;50.90;;;;;;5113403;28;20759;-62
2023/12/27 00:37:29;;;;;;;3.05;1.60;;;18.80;50.90;;;;;;5113672;28;20315;-62
2023/12/27 00:39:56;;;;;;;3.20;1.65;;;18.80;51.00;;;;;;5113367;28;20284;-62
2023/12/27 00:42:23;;;;;;;3.65;1.70;;;18.80;51.00;;;;;;5113618;28;20213;-62
2023/12/27 00:44:52;;;;;;;3.55;1.50;;;18.80;51.00;;;;;;5113297;28;20565;-62
2023/12/27 00:47:18;;;;;;;3.65;1.60;;;18.80;51.00;;;;;;5112902;28;20327;-62
2023/12/27 00:49:45;;;;;;;3.25;1.27;;;18.70;50.90;;;;;;5113825;28;20280;-62
2023/12/27 00:52:12;;;;;;;4.05;1.80;;;18.70;50.90;;;;;;5113321;28;20698;-61
2023/12/27 00:54:39;;;;;;;3.53;1.50;;;18.70;51.00;;;;;;5112848;28;20739;-62
2023/12/27 00:57:06;;;;;;;3.58;1.52;;;18.70;51.00;;;;;;5113115;28;20765;-62
2023/12/27 00:59:33;;;;;;;4.97;1.90;;;18.80;51.10;;;;;;5113332;28;20186;-62
2023/12/27 01:02:01;;;;;;;3.42;1.50;;;18.70;51.00;;;;;;5113004;28;20217;-62
2023/12/27 01:04:28;;;;;;;4.43;1.70;;;18.70;51.70;;;;;;5112871;28;20189;-62
2023/12/27 01:06:55;;;;;;;3.25;1.55;;;18.70;51.10;;;;;;5113435;28;20295;-62
2023/12/27 01:09:22;;;;;;;4.85;1.73;;;18.70;51.10;;;;;;5111829;28;20272;-62
2023/12/27 01:11:48;;;;;;;4.22;2.00;;;18.70;51.10;;;;;;5113080;28;20323;-62
2023/12/27 01:14:16;;;;;;;3.20;1.60;;;18.70;51.10;;;;;;5112765;28;20204;-62
2023/12/27 01:16:43;;;;;;;3.85;1.70;;;18.70;51.10;;;;;;5112697;28;20217;-62
2023/12/27 01:19:12;;;;;;;3.35;1.48;;;18.70;51.20;;;;;;5112959;28;20276;-62
2023/12/27 01:21:39;;;;;;;3.10;1.80;;;18.70;51.20;;;;;;5112820;28;20651;-62
2023/12/27 01:24:06;;;;;;;4.55;1.98;;;18.70;51.20;;;;;;5112266;28;20217;-62
2023/12/27 01:26:33;;;;;;;4.78;2.05;;;18.70;51.20;;;;;;5113341;28;20209;-62
2023/12/27 01:29:00;;;;;;;3.80;1.90;;;18.70;51.20;;;;;;5112495;28;20638;-61
2023/12/27 01:31:27;;;;;;;3.40;1.58;;;18.70;51.20;;;;;;5112427;28;20315;-62
2023/12/27 01:33:54;;;;;;;4.28;1.40;;;18.70;51.20;;;;;;5112866;28;20280;-62
2023/12/27 01:36:23;;;;;;;4.93;1.65;;;18.70;51.30;;;;;;5112870;28;20317;-61
2023/12/27 01:38:50;;;;;;;5.22;1.90;;;18.70;51.30;;;;;;5112455;28;20209;-62
2023/12/27 01:41:16;;;;;;;3.83;1.80;;;18.70;51.40;;;;;;5112722;28;20299;-62
2023/12/27 01:43:43;;;;;;;4.13;1.73;;;18.70;51.40;;;;;;5112652;28;20268;-62
2023/12/27 01:46:11;;;;;;;2.75;1.63;;;18.60;51.30;;;;;;5112113;28;20260;-62
2023/12/27 01:48:38;;;;;;;3.05;1.48;;;18.70;51.40;;;;;;5112593;28;20757;-62
2023/12/27 01:51:06;;;;;;;2.42;1.73;;;18.70;51.40;;;;;;5112586;28;20801;-62
2023/12/27 01:53:35;;;;;;;3.67;1.63;;;18.70;51.40;;;;;;5112566;28;20276;-62
2023/12/27 01:56:02;;;;;;;4.25;1.63;;;18.70;51.40;;;;;;5112689;28;20216;-62
2023/12/27 01:58:29;;;;;;;2.65;1.55;;;18.60;51.30;;;;;;5112579;28;20303;-62
2023/12/27 02:00:56;;;;;;;3.97;2.10;;;18.60;51.30;;;;;;5112314;28;20308;-62
2023/12/27 02:03:25;;;;;;;3.00;1.70;;;18.60;51.30;;;;;;5112583;28;20189;-62
2023/12/27 02:05:53;;;;;;;4.53;1.83;;;18.60;51.30;;;;;;5112085;28;20714;-62
2023/12/27 02:08:20;;;;;;;3.60;1.75;;;18.60;51.30;;;;;;5112193;28;20193;-62
2023/12/27 02:10:49;;;;;;;4.53;2.10;;;18.60;51.30;;;;;;5112546;28;20316;-62
2023/12/27 02:13:16;;;;;;;4.05;1.70;;;18.60;51.30;;;;;;5112341;28;20521;-62
2023/12/27 02:15:43;;;;;;;6.30;2.03;;;18.60;51.40;;;;;;5112038;28;20274;-62
2023/12/27 02:18:11;;;;;;;5.03;2.00;;;18.60;51.40;;;;;;5111947;28;20789;-62
2023/12/27 02:20:39;;;;;;;3.35;1.88;;;18.60;51.40;;;;;;5114592;28;20777;-61
2023/12/27 02:23:08;;;;;;;3.95;1.83;;;18.60;51.40;;;;;;5116387;28;20197;-62
2023/12/27 02:25:37;;;;;;;4.38;1.85;;;18.60;51.40;;;;;;5115983;28;20272;-62
2023/12/27 02:28:04;;;;;;;3.40;1.70;;;18.60;51.40;;;;;;5116459;28;20277;-63
2023/12/27 02:30:33;;;;;;;4.68;1.90;;;18.60;51.40;;;;;;5115512;28;20594;-62
2023/12/27 02:33:00;;;;;;;5.72;2.15;;;18.60;52.10;;;;;;5116258;28;20247;-62
2023/12/27 02:35:27;;;;;;;2.83;1.83;;;18.60;52.10;;;;;;5116085;28;20283;-61
2023/12/27 02:37:54;;;;;;;4.30;1.90;;;18.50;51.40;;;;;;5115760;28;20251;-62
2023/12/27 02:40:20;;;;;;;3.97;1.98;;;18.60;51.60;;;;;;5116175;28;20264;-62
2023/12/27 02:42:49;;;;;;;2.42;1.75;;;18.50;51.50;;;;;;5116091;28;20308;-62
2023/12/27 02:45:16;;;;;;;5.53;2.00;;;18.60;51.60;;;;;;5115488;28;20186;-62
2023/12/27 02:47:42;;;;;;;2.40;1.50;;;18.50;51.50;;;;;;5115779;28;20278;-62
2023/12/27 02:50:10;;;;;;;3.45;1.85;;;18.50;51.50;;;;;;5115665;28;20200;-62
2023/12/27 02:52:36;;;;;;;4.63;2.10;;;18.50;52.20;;;;;;5115309;28;20784;-61
2023/12/27 02:55:04;;;;;;;3.28;2.00;;;18.60;51.60;;;;;;5115663;28;20654;-62
2023/12/27 02:57:31;;;;;;;5.53;2.53;;;18.50;51.60;;;;;;5115375;28;20305;-62
2023/12/27 02:59:59;;;;;;;5.18;2.20;;;18.50;51.60;;;;;;5115213;28;20300;-62
2023/12/27 03:02:26;;;;;;;3.35;1.95;;;18.50;51.60;;;;;;5115944;28;20300;-62
2023/12/27 03:04:53;;;;;;;5.25;2.13;;;18.50;51.60;;;;;;5115634;28;20193;-62
2023/12/27 03:07:19;;;;;;;3.20;1.85;;;18.50;51.70;;;;;;5115294;28;20663;-62
2023/12/27 03:09:46;;;;;;;3.90;1.92;;;18.50;51.70;;;;;;5115347;28;20651;-62
2023/12/27 03:12:13;;;;;;;4.10;2.10;;;18.50;51.60;;;;;;5115202;28;20303;-63
2023/12/27 03:14:40;;;;;;;5.28;2.08;;;18.50;51.70;;;;;;5115135;28;20185;-62
2023/12/27 03:17:08;;;;;;;5.07;2.10;;;18.50;51.70;;;;;;5115167;28;20304;-62
2023/12/27 03:19:35;;;;;;;3.35;2.10;;;18.50;51.70;;;;;;5115277;28;20300;-62
2023/12/27 03:22:02;;;;;;;4.55;2.28;;;18.50;51.70;;;;;;5115025;28;20302;-62
2023/12/27 03:24:29;;;;;;;3.40;1.95;;;18.50;51.70;;;;;;5115147;28;20216;-62
2023/12/27 03:26:56;;;;;;;4.28;2.25;;;18.50;51.80;;;;;;5115131;28;20300;-62
2023/12/27 03:29:22;;;;;;;5.35;2.30;;;18.50;51.70;;;;;;5114898;28;20264;-62
2023/12/27 03:31:49;;;;;;;3.55;2.10;;;18.50;51.80;;;;;;5113690;28;20703;-62
2023/12/27 03:34:17;;;;;;;4.88;1.98;;;18.50;51.80;;;;;;5114574;28;20279;-62
2023/12/27 03:36:44;;;;;;;5.53;2.30;;;18.50;51.80;;;;;;5114440;28;20282;-62
2023/12/27 03:39:11;;;;;;;4.63;2.20;;;18.50;51.80;;;;;;5114787;28;20299;-62
2023/12/27 03:41:38;;;;;;;3.97;2.20;;;18.50;51.90;;;;;;5114579;28;20755;-61
2023/12/27 03:44:05;;;;;;;4.65;1.92;;;18.50;51.90;;;;;;5114649;28;20246;-62
2023/12/27 03:46:32;;;;;;;2.53;1.88;;;18.50;51.90;;;;;;5109926;28;20279;-61
2023/12/27 03:48:59;;;;;;;4.10;2.35;;;18.50;51.90;;;;;;5094138;28;20194;-62
2023/12/27 03:51:27;;;;;;;4.35;2.10;;;18.50;51.90;;;;;;5093856;28;20214;-62
2023/12/27 03:53:54;;;;;;;4.00;2.10;;;18.40;51.90;;;;;;5094153;28;20187;-63
2023/12/27 03:56:21;;;;;;;3.95;2.50;;;18.50;52.00;;;;;;5094248;28;20307;-62
2023/12/27 03:58:48;;;;;;;4.35;2.13;;;18.40;51.90;;;;;;5094056;28;20301;-62
2023/12/27 04:01:20;;;;;;;6.40;2.28;;;18.40;51.90;;;;;;5094002;28;20304;-62
2023/12/27 04:03:48;;;;;;;2.92;2.35;;;18.40;51.90;;;;;;5094098;28;20197;-62
2023/12/27 04:06:18;;;;;;;4.32;2.28;;;18.40;51.90;;;;;;5093413;28;20214;-62
2023/12/27 04:08:46;;;;;;;3.78;2.42;;;18.50;52.00;;;;;;5093768;28;20641;-62
2023/12/27 04:11:13;;;;;;;4.45;2.28;;;18.40;52.00;;;;;;5093452;28;20305;-62
2023/12/27 04:13:40;;;;;;;5.57;2.33;;;18.40;51.90;;;;;;5093493;28;20191;-62
2023/12/27 04:16:07;;;;;;;7.32;2.47;;;18.40;52.00;;;;;;5093787;28;20229;-62
2023/12/27 04:18:34;;;;;;;5.85;2.80;;;18.40;52.00;;;;;;5093465;28;20699;-62
2023/12/27 04:21:01;;;;;;;5.22;2.40;;;18.40;52.00;;;;;;5093283;28;20225;-62
2023/12/27 04:23:27;;;;;;;5.38;2.25;;;18.40;52.00;;;;;;5093234;28;20218;-62
2023/12/27 04:25:56;;;;;;;5.47;2.67;;;18.40;52.00;;;;;;5093261;28;20297;-62
2023/12/27 04:28:23;;;;;;;5.68;2.20;;;18.40;52.10;;;;;;5093118;28;20645;-62
2023/12/27 04:30:49;;;;;;;5.22;2.80;;;18.40;52.00;;;;;;5093325;28;20216;-62
2023/12/27 04:33:16;;;;;;;4.00;2.35;;;18.40;52.10;;;;;;5093154;28;20648;-61
2023/12/27 04:35:44;;;;;;;4.95;2.45;;;18.40;52.10;;;;;;5093438;28;20186;-62
2023/12/27 04:38:13;;;;;;;4.60;2.40;;;18.40;52.10;;;;;;5093399;28;20296;-62
2023/12/27 04:40:44;;;;;;;4.10;2.50;;;18.40;52.10;;;;;;5093264;28;20229;-62
2023/12/27 04:43:12;;;;;;;4.68;2.50;;;18.40;52.10;;;;;;5092873;28;20233;-61
2023/12/27 04:45:39;;;;;;;4.20;2.28;;;18.40;52.10;;;;;;5092694;28;20277;-61
2023/12/27 04:48:06;;;;;;;5.03;2.67;;;18.40;52.20;;;;;;5093495;28;20284;-62
2023/12/27 04:50:33;;;;;;;5.72;2.47;;;18.40;52.20;;;;;;5093010;28;20198;-62
2023/12/27 04:53:00;;;;;;;8.68;2.78;;;18.40;52.20;;;;;;5092558;28;20659;-61
2023/12/27 04:55:27;;;;;;;3.40;2.28;;;18.40;52.20;;;;;;5092805;28;20281;-62
2023/12/27 04:57:54;;;;;;;5.47;2.70;;;18.40;52.20;;;;;;5092976;28;20308;-60
2023/12/27 05:00:23;;;;;;;4.70;3.03;;;18.40;52.30;;;;;;5092384;28;20638;-62
2023/12/27 05:02:50;;;;;;;4.97;2.53;;;18.40;52.30;;;;;;5092929;28;20699;-62
2023/12/27 05:05:17;;;;;;;5.60;2.30;;;18.30;52.20;;;;;;5092754;28;20290;-63
2023/12/27 05:07:44;;;;;;;5.90;2.60;;;18.40;52.30;;;;;;5092654;28;20300;-62
2023/12/27 05:10:11;;;;;;;3.70;2.40;;;18.40;52.30;;;;;;5092788;28;20277;-62
2023/12/27 05:12:38;;;;;;;2.90;2.10;;;18.40;52.30;;;;;;5092861;28;20321;-61
2023/12/27 05:15:06;;;;;;;5.05;3.00;;;18.30;52.30;;;;;;5092425;28;20636;-61
2023/12/27 05:17:34;;;;;;;4.95;2.38;;;18.40;52.40;;;;;;5092556;28;20218;-62
2023/12/27 05:20:01;;;;;;;3.88;2.40;;;18.40;53.00;;;;;;5092629;28;20217;-63
2023/12/27 05:22:33;;;;;;;4.65;2.35;;;18.40;52.40;;;;;;5092508;28;20300;-62
2023/12/27 05:25:00;;;;;;;4.55;2.30;;;18.40;52.40;;;;;;5092533;28;20213;-62
2023/12/27 05:27:27;;;;;;;4.57;2.45;;;18.30;52.30;;;;;;5092609;28;20220;-62
2023/12/27 05:29:54;;;;;;;4.18;2.58;;;18.40;52.40;;;;;;5092515;28;20273;-61
2023/12/27 05:32:21;;;;;;;6.03;2.65;;;18.30;53.00;;;;;;5092601;28;20659;-62
2023/12/27 05:34:50;;;;;;;7.38;2.80;;;18.30;52.40;;;;;;5092186;28;20197;-62
2023/12/27 05:37:17;;;;;;;5.28;2.67;;;18.30;52.40;;;;;;5092113;28;20218;-62
2023/12/27 05:39:44;;;;;;;4.55;2.58;;;18.40;52.40;;;;;;5092313;28;20309;-62
2023/12/27 05:42:13;;;;;;;3.53;2.35;;;18.30;52.30;;;;;;5092504;28;20305;-62
2023/12/27 05:44:40;;;;;;;4.03;2.78;;;18.40;52.50;;;;;;5092039;28;20189;-62
2023/12/27 05:47:07;;;;;;;5.38;2.67;;;18.50;52.40;;;;;;5091922;28;20237;-62
2023/12/27 05:49:33;;;;;;;4.43;2.58;;;18.50;52.30;;;;;;5092386;28;20277;-62
2023/12/27 05:52:03;;;;;;;7.55;3.30;;;18.70;52.90;;;;;;5091493;28;20731;-62
2023/12/27 05:54:30;;;;;;;3.65;2.63;;;18.80;52.20;;;;;;5092880;28;20186;-62
2023/12/27 05:56:56;;;;;;;4.75;2.50;;;18.90;52.10;;;;;;5096553;28;20227;-62
2023/12/27 05:59:23;;;;;;;5.15;2.70;;;19.00;51.90;;;;;;5096161;28;20218;-62
2023/12/27 06:01:52;;;;;;;3.97;2.53;;;19.20;51.80;;;;;;5096332;28;20216;-62
2023/12/27 06:04:20;;;;;;;4.28;2.38;;;19.30;51.60;;;;;;5096300;28;20186;-62
2023/12/27 06:06:49;;;;;;;4.13;2.40;;;19.40;51.40;;;;;;5095745;28;20316;-62
2023/12/27 06:09:17;;;;;;;4.32;2.70;;;19.60;51.30;;;;;;5096268;28;20194;-62
2023/12/27 06:11:44;;;;;;;6.40;2.72;;;19.70;51.10;;;;;;5095971;28;20384;-62
2023/12/27 06:14:11;;;;;;;4.88;2.50;;;19.80;50.80;;;;;;5095984;28;20277;-62
2023/12/27 06:16:37;;;;;;;3.35;2.20;;;19.90;50.80;;;;;;5095736;28;20308;-62
2023/12/27 06:19:04;;;;;;;6.97;2.60;;;20.10;50.70;;;;;;5095999;28;20585;-62
2023/12/27 06:21:31;;;;;;;3.67;2.40;;;20.20;50.50;;;;;;5095405;28;20309;-62
2023/12/27 06:23:58;;;;;;;5.43;2.45;;;20.30;50.30;;;;;;5095786;28;20597;-62
2023/12/27 06:26:26;;;;;;;5.03;2.70;;;20.40;50.20;;;;;;5095934;28;20218;-62
2023/12/27 06:28:53;;;;;;;5.43;2.83;;;20.60;50.00;;;;;;5095470;28;20192;-62
2023/12/27 06:31:20;;;;;;;4.78;2.67;;;20.60;49.90;;;;;;5095803;28;20305;-62
2023/12/27 06:33:47;;;;;;;3.50;2.42;;;20.70;49.80;;;;;;5095786;28;20244;-62
2023/12/27 06:36:14;;;;;;;3.55;2.47;;;20.70;49.60;;;;;;5095161;28;20297;-62
2023/12/27 06:38:41;;;;;;;4.90;2.55;;;20.70;49.50;;;;;;5095643;28;20210;-62
2023/12/27 06:41:09;;;;;;;5.20;2.53;;;20.80;49.60;;;;;;5095719;28;20225;-62
2023/12/27 06:43:37;;;;;;;6.80;2.80;;;20.70;49.50;;;;;;5095107;28;20281;-62
2023/12/27 06:46:04;;;;;;;5.13;2.58;;;20.60;49.40;;;;;;5095351;28;20317;-62
2023/12/27 06:48:31;;;;;;;6.75;2.80;;;20.60;49.50;;;;;;5095338;28;20766;-62
2023/12/27 06:50:58;;;;;;;4.43;2.40;;;20.60;49.60;;;;;;5095372;28;20292;-62
2023/12/27 06:53:24;;;;;;;4.15;2.45;;;20.50;49.60;;;;;;5095344;28;20273;-62
2023/12/27 06:55:51;;;;;;;4.03;2.63;;;20.50;49.70;;;;;;5095356;28;20285;-62
2023/12/27 06:58:18;;;;;;;3.47;2.28;;;20.40;49.70;;;;;;5095028;28;20275;-61
2023/12/27 07:00:46;;;;;;;4.60;2.65;;;20.30;49.70;;;;;;5095209;28;20305;-62
2023/12/27 07:03:13;;;;;;;3.20;2.63;;;20.20;49.70;;;;;;5094804;28;20571;-62
2023/12/27 07:05:40;;;;;;;3.63;2.80;;;20.20;49.90;;;;;;5094685;28;20285;-62
2023/12/27 07:08:07;;;;;;;4.63;2.45;;;20.10;49.80;;;;;;5095403;28;20272;-62
2023/12/27 07:10:34;;;;;;;3.40;2.38;;;20.10;50.00;;;;;;5095303;28;20272;-62
2023/12/27 07:13:01;;;;;;;4.15;2.67;;;20.10;50.20;;;;;;5094711;28;20302;-62
2023/12/27 07:15:29;;;;;;;5.38;2.55;;;20.20;50.20;;;;;;5095064;28;20273;-62
2023/12/27 07:17:58;;;;;;;4.32;2.75;;;20.20;50.80;;;;;;5095022;28;20260;-62
2023/12/27 07:20:25;;;;;;;3.90;2.90;;;20.30;50.00;;;;;;5094646;28;20253;-62
2023/12/27 07:22:52;;;;;;;4.93;2.60;;;20.40;49.90;;;;;;5095256;28;20224;-62
2023/12/27 07:25:19;;;;;;;4.07;2.72;;;20.40;49.70;;;;;;5094873;28;20229;-62
2023/12/27 07:27:46;;;;;;;3.60;2.55;;;20.50;49.80;;;;;;5093954;28;20794;-62
2023/12/27 07:30:13;;;;;;;4.10;2.90;;;20.40;49.70;;;;;;5094400;28;20742;-62
2023/12/27 07:32:40;;;;;;;6.55;2.90;;;20.40;49.60;;;;;;5094515;28;20301;-62
2023/12/27 07:35:09;;;;;;;3.60;2.60;;;20.40;49.60;;;;;;5094169;28;20269;-63
2023/12/27 07:37:36;;;;;;;4.57;2.75;;;20.40;49.60;;;;;;5094739;28;20218;-62
2023/12/27 07:40:03;;;;;;;6.88;2.97;;;20.40;49.70;;;;;;5094493;28;20218;-62
2023/12/27 07:42:30;;;;;;;2.90;2.45;;;20.30;49.60;;;;;;5094193;28;20249;-62
2023/12/27 07:44:57;;;;;;;4.50;2.85;;;20.20;49.60;;;;;;5094430;28;20600;-62
2023/12/27 07:47:24;;;;;;;3.00;2.58;;;20.20;49.60;;;;;;5094146;28;20782;-62
2023/12/27 07:49:51;;;;;;;9.32;2.97;;;20.10;49.70;;;;;;5094063;28;20467;-62
2023/12/27 07:52:19;;;;;;;5.03;2.75;;;20.10;49.80;;;;;;5094106;28;20625;-61
2023/12/27 07:54:46;;;;;;;5.10;2.90;;;20.00;49.80;;;;;;5094296;28;20289;-62
2023/12/27 07:57:12;;;;;;;3.70;2.85;;;20.00;50.00;;;;;;5093920;28;20213;-62
2023/12/27 07:59:39;;;;;;;5.50;2.47;;;19.90;50.00;;;;;;5094050;28;20309;-62
2023/12/27 08:02:07;;;;;;;4.22;2.75;;;19.90;50.00;;;;;;5094213;28;20300;-62
2023/12/27 08:04:34;;;;;;;3.78;2.75;;;19.90;50.20;;;;;;5093395;28;20282;-63
2023/12/27 08:07:01;;;;;;;5.20;2.70;;;19.90;50.20;;;;;;5094018;28;20217;-62
2023/12/27 08:09:31;;;;;;;4.45;2.70;;;20.00;50.30;;;;;;5093660;28;20194;-62
2023/12/27 08:11:57;;;;;;;4.43;2.80;;;20.10;50.20;;;;;;5093616;28;20764;-62
2023/12/27 08:14:24;;;;;;;4.75;2.70;;;20.20;50.20;;;;;;5093555;28;20643;-62
2023/12/27 08:16:53;;;;;;;5.85;2.72;;;20.30;50.00;;;;;;5093459;28;20301;-62
2023/12/27 08:19:20;;;;;;;5.55;2.90;;;20.40;49.90;;;;;;5093096;28;20298;-62
2023/12/27 08:21:47;;;;;;;4.35;2.78;;;20.40;49.70;;;;;;5093792;28;20309;-62
2023/12/27 08:24:14;;;;;;;4.55;2.72;;;20.40;49.60;;;;;;5093373;28;20193;-62
2023/12/27 08:26:42;;;;;;;5.22;2.65;;;20.40;49.50;;;;;;5093492;28;20309;-62
2023/12/27 08:29:09;;;;;;;4.10;2.90;;;20.40;49.50;;;;;;5093654;28;20281;-62
2023/12/27 08:31:35;;;;;;;3.55;2.50;;;20.40;49.50;;;;;;5093523;28;20220;-62
2023/12/27 08:34:02;;;;;;;4.78;3.05;;;20.40;49.50;;;;;;5093287;28;20194;-62
2023/12/27 08:36:30;;;;;;;4.82;3.00;;;20.40;49.60;;;;;;5093527;28;20249;-62
2023/12/27 08:38:57;;;;;;;4.85;2.95;;;20.30;49.60;;;;;;5092928;28;20197;-62
2023/12/27 08:41:25;;;;;;;4.10;2.88;;;20.30;49.60;;;;;;5093099;28;20309;-62
2023/12/27 08:43:53;;;;;;;4.07;2.75;;;20.30;49.60;;;;;;5092988;28;20193;-62
2023/12/27 08:46:21;;;;;;;5.32;2.67;;;20.30;49.60;;;;;;5093171;28;20312;-61
2023/12/27 08:48:48;;;;;;;6.05;3.13;;;20.20;49.50;;;;;;5092975;28;20267;-62
2023/12/27 08:51:15;;;;;;;5.10;2.90;;;20.20;49.50;;;;;;5093262;28;20305;-62
2023/12/27 08:53:42;;;;;;;4.82;3.10;;;20.20;49.60;;;;;;5093086;28;20285;-62
2023/12/27 08:56:09;;;;;;;4.38;2.92;;;20.10;49.60;;;;;;5092446;28;20730;-62
2023/12/27 08:58:36;;;;;;;5.18;2.72;;;20.10;49.60;;;;;;5092804;28;20185;-62
2023/12/27 09:01:04;;;;;;;4.65;2.65;;;20.00;49.60;;;;;;5092937;28;20217;-62
2023/12/27 09:03:31;;;;;;;4.43;3.13;;;20.00;49.70;;;;;;5092419;28;20190;-62
2023/12/27 09:05:58;;;;;;;3.60;2.95;;;20.00;49.80;;;;;;5092874;28;20281;-62
2023/12/27 09:08:25;;;;;;;4.38;2.97;;;19.90;49.80;;;;;;5092921;28;20281;-62
2023/12/27 09:10:52;;;;;;;7.60;2.90;;;19.90;49.90;;;;;;5092124;28;20569;-62
2023/12/27 09:13:19;;;;;;;3.83;2.70;;;19.90;50.00;;;;;;5092813;28;20284;-62
2023/12/27 09:15:45;;;;;;;3.95;2.60;;;19.80;50.00;;;;;;5093123;28;20265;-62
2023/12/27 09:18:14;;;;;;;4.47;2.90;;;19.80;50.00;;;;;;5092460;28;20218;-62
2023/12/27 09:20:40;;;;;;;5.22;2.95;;;19.80;50.10;;;;;;5092712;28;20301;-62
2023/12/27 09:23:08;;;;;;;5.72;2.75;;;19.80;50.10;;;;;;5092654;28;20766;-62
2023/12/27 09:25:35;;;;;;;4.13;2.75;;;19.80;50.00;;;;;;5092082;28;20632;-62
2023/12/27 09:28:01;;;;;;;4.55;2.80;;;19.80;50.00;;;;;;5092404;28;20802;-62
2023/12/27 09:30:28;;;;;;;4.78;2.50;;;19.90;50.10;;;;;;5091570;28;20196;-62
2023/12/27 09:32:56;;;;;;;5.18;2.90;;;19.80;50.00;;;;;;5092099;28;20214;-62
2023/12/27 09:35:24;;;;;;;5.25;3.28;;;19.80;50.10;;;;;;5092192;28;20276;-61
2023/12/27 09:37:51;;;;;;;3.65;3.00;;;19.80;50.10;;;;;;5092182;28;20260;-62
2023/12/27 09:40:17;;;;;;;3.85;2.90;;;19.70;50.10;;;;;;5092072;28;20305;-62
2023/12/27 09:42:47;;;;;;;5.57;3.28;;;19.70;50.10;;;;;;5092461;28;20436;-62
2023/12/27 09:45:17;;;;;;;6.22;3.05;;;19.70;50.20;;;;;;5092433;28;20265;-62
2023/12/27 09:47:47;;;;;;;6.47;3.10;;;19.60;50.20;;;;;;5091794;28;20711;-62
2023/12/27 09:50:13;;;;;;;4.93;2.88;;;19.60;50.40;;;;;;5092382;28;20236;-62
2023/12/27 09:52:44;;;;;;;5.50;2.97;;;19.60;50.40;;;;;;5092347;28;20309;-62
2023/12/27 09:55:11;;;;;;;5.20;3.08;;;19.60;50.50;;;;;;5091932;28;20186;-62
2023/12/27 09:57:39;;;;;;;4.10;2.90;;;19.50;50.50;;;;;;5091852;28;20216;-62
2023/12/27 10:00:08;;;;;;;5.00;3.20;;;19.50;50.50;;;;;;5092155;28;20582;-62
2023/12/27 10:02:36;;;;;;;6.30;3.25;;;19.50;50.50;;;;;;5092781;28;20213;-62
2023/12/27 10:05:12;;;;;;;6.45;2.90;;;19.40;50.40;;;;;;5092160;28;20186;-62
2023/12/27 10:07:40;;;;;;;4.75;3.00;;;19.40;50.40;;;;;;5092083;28;20585;-62
2023/12/27 10:10:09;;;;;;;5.95;3.33;;;19.30;50.40;;;;;;5091689;28;20186;-62
2023/12/27 10:12:36;;;;;;;4.13;3.20;;;19.30;50.50;;;;;;5092082;28;20266;-62
2023/12/27 10:15:04;;;;;;;5.50;3.20;;;19.30;50.60;;;;;;5092265;28;20265;-61
2023/12/27 10:17:32;;;;;;;5.50;3.10;;;19.30;50.70;;;;;;5091635;28;20236;-62
2023/12/27 10:19:59;;;;;;;4.03;2.97;;;19.30;50.70;;;;;;5092039;28;20218;-62
2023/12/27 10:22:27;;;;;;;5.68;3.10;;;19.30;50.70;;;;;;5091893;28;20656;-62
2023/12/27 10:24:54;;;;;;;5.22;2.95;;;19.30;50.80;;;;;;5091799;28;20187;-62
2023/12/27 10:27:22;;;;;;;4.57;2.83;;;19.40;50.80;;;;;;5092015;28;20794;-62
2023/12/27 10:29:49;;;;;;;3.92;2.65;;;19.50;50.80;;;;;;5091693;28;20726;-62
2023/12/27 10:32:17;;;;;;;4.82;2.88;;;19.60;50.60;;;;;;5091372;28;20767;-62
2023/12/27 10:34:44;;;;;;;3.88;2.70;;;19.70;50.70;;;;;;5091782;28;20644;-62
2023/12/27 10:37:13;;;;;;;6.05;3.10;;;19.80;50.70;;;;;;5092062;28;20300;-62
2023/12/27 10:39:45;;;;;;;5.28;2.97;;;19.90;50.40;;;;;;5091521;28;20285;-62
2023/12/27 10:42:13;;;;;;;4.45;2.90;;;20.00;50.80;;;;;;5095010;28;20214;-62
2023/12/27 10:44:42;;;;;;;5.50;3.05;;;20.10;50.00;;;;;;5095644;28;20190;-62
2023/12/27 10:47:11;;;;;;;4.90;2.78;;;20.20;50.00;;;;;;5094855;28;20291;-62
2023/12/27 10:49:41;;;;;;;4.53;2.80;;;20.30;49.80;;;;;;5095907;28;20190;-62
2023/12/27 10:52:10;;;;;;;4.53;2.83;;;20.30;49.70;;;;;;5095289;28;20232;-62
2023/12/27 10:54:40;;;;;;;6.00;3.10;;;20.30;49.60;;;;;;5095500;28;20208;-62
2023/12/27 10:57:10;;;;;;;4.97;3.05;;;20.30;49.60;;;;;;5095365;28;20304;-62
2023/12/27 10:59:37;;;;;;;4.68;2.72;;;20.30;49.60;;;;;;5095403;28;20273;-62
2023/12/27 11:02:06;;;;;;;5.85;3.08;;;20.20;49.60;;;;;;5094905;28;20255;-62
2023/12/27 11:04:34;;;;;;;6.18;2.97;;;20.20;49.60;;;;;;5094858;28;20190;-62
2023/12/27 11:07:03;;;;;;;3.35;2.50;;;20.10;49.50;;;;;;5095196;28;20304;-62
2023/12/27 11:09:31;;;;;;;4.10;3.03;;;20.10;49.60;;;;;;5094854;28;20549;-62
2023/12/27 11:12:01;;;;;;;4.32;3.25;;;20.10;49.70;;;;;;5095103;28;20214;-62
2023/12/27 11:14:33;;;;;;;5.20;2.80;;;20.00;49.70;;;;;;5094944;28;20700;-62
2023/12/27 11:17:04;;;;;;;6.40;2.85;;;19.90;49.70;;;;;;5094614;28;20670;-62
2023/12/27 11:19:34;;;;;;;5.10;2.83;;;19.90;49.80;;;;;;5095342;28;20285;-62
2023/12/27 11:22:01;;;;;;;5.80;2.55;;;19.90;50.00;;;;;;5094744;28;20234;-62
2023/12/27 11:24:28;;;;;;;6.45;3.28;;;19.90;50.00;;;;;;5094626;28;20240;-62
2023/12/27 11:27:00;;;;;;;4.78;2.70;;;19.80;50.00;;;;;;5094741;28;20296;-62
2023/12/27 11:29:29;;;;;;;5.05;2.70;;;19.80;50.00;;;;;;5094823;28;20219;-62
2023/12/27 11:31:57;;;;;;;4.47;2.60;;;19.70;50.10;;;;;;5094393;28;20301;-62
2023/12/27 11:34:24;;;;;;;5.20;2.75;;;19.70;50.20;;;;;;5094690;28;20277;-62
2023/12/27 11:36:53;;;;;;;3.83;2.70;;;19.60;50.10;;;;;;5094635;28;20221;-62
2023/12/27 11:39:20;;;;;;;4.43;2.78;;;19.60;50.30;;;;;;5094551;28;20289;-62
2023/12/27 11:41:48;;;;;;;4.53;2.70;;;19.60;50.40;;;;;;5094479;28;20330;-62
2023/12/27 11:44:17;;;;;;;4.75;2.60;;;19.50;51.10;;;;;;5094727;28;20277;-62
2023/12/27 11:46:44;;;;;;;3.53;2.40;;;19.50;50.50;;;;;;5093786;28;20230;-62
2023/12/27 11:49:19;;;;;;;6.13;2.75;;;19.50;50.50;;;;;;5094300;28;20202;-62
2023/12/27 11:51:46;;;;;;;4.68;2.80;;;19.50;50.50;;;;;;5093559;28;20782;-61
2023/12/27 11:54:21;;;;;;;4.50;2.70;;;19.50;50.50;;;;;;5093676;28;20265;-62
2023/12/27 11:56:48;;;;;;;5.05;2.60;;;19.60;50.60;;;;;;5094289;28;20297;-62
2023/12/27 11:59:16;;;;;;;4.88;2.70;;;19.70;50.70;;;;;;5094237;28;20643;-62
2023/12/27 12:01:43;;;;;;;4.45;2.80;;;19.80;50.60;;;;;;5093723;28;20320;-62
2023/12/27 12:04:35;;;;;;;4.65;2.85;;;19.80;50.30;;;;;;5094069;28;20277;-62
2023/12/27 12:07:40;;;;;;;5.78;2.95;;;19.90;50.20;;;;;;5094212;28;20264;-62
2023/12/27 12:10:24;;;;;;;5.40;3.00;;;20.00;50.10;;;;;;5094206;28;20276;-62
2023/12/27 12:12:52;;;;;;;6.85;2.72;;;20.00;50.00;;;;;;5093497;28;20251;-62
2023/12/27 12:15:22;;;;;;;4.78;2.80;;;20.00;50.00;;;;;;5093615;28;20191;-62
2023/12/27 12:17:49;;;;;;;6.05;3.03;;;20.00;49.90;;;;;;5093961;28;20210;-62
2023/12/27 12:20:16;;;;;;;5.05;2.53;;;20.00;49.90;;;;;;5093765;28;20186;-62
2023/12/27 12:22:44;;;;;;;4.32;2.70;;;20.00;50.50;;;;;;5092961;28;20217;-62
2023/12/27 12:25:12;;;;;;;5.85;2.40;;;20.00;50.00;;;;;;5093831;28;20266;-62
2023/12/27 12:27:44;;;;;;;6.10;2.75;;;20.10;50.00;;;;;;5093334;28;20305;-63
2023/12/27 12:30:11;;;;;;;5.35;2.90;;;20.10;49.90;;;;;;5093314;28;20617;-62
2023/12/27 12:32:41;;;;;;;4.05;2.70;;;20.30;50.00;;;;;;5093472;28;20327;-62
2023/12/27 12:35:09;;;;;;;3.55;2.28;;;20.30;49.70;;;;;;5093233;28;20726;-62
2023/12/27 12:37:37;;;;;;;4.47;2.83;;;20.40;49.70;;;;;;5093139;28;20229;-62
2023/12/27 12:40:07;;;;;;;5.65;2.63;;;20.50;49.40;;;;;;5093499;28;20248;-62
2023/12/27 12:42:34;;;;;;;4.72;2.63;;;20.70;49.40;;;;;;5093207;28;20230;-62
2023/12/27 12:45:04;;;;;;;5.10;2.55;;;20.80;49.20;;;;;;5093155;28;20285;-62
2023/12/27 12:47:32;;;;;;;4.68;2.85;;;20.90;48.90;;;;;;5092948;28;20237;-62
2023/12/27 12:49:59;;;;;;;4.60;2.10;;;21.00;49.50;;;;;;5093348;28;20610;-62